Aviation Digital Data Service (ADDS)

Output produced by TAFs form (0354 UTC 25 March 2017)
found at http://www.aviationweather.gov/adds/tafs/
 
KAPA 250253Z 18005KT 10SM FEW070 02/00 A3015 RMK AO2 SLP225 T00220000 51002
KAPA 250241Z 2503/2524 20007KT P6SM FEW100 
     FM250500 20008KT P6SM FEW250 
     FM250700 20006KT 4SM BR FEW250 
     FM251500 15008KT P6SM SCT250 
     FM252200 15010KT P6SM SCT090 BKN200